createdAt,value
2019-01-31T00:04:19.464Z,11.83
2019-01-31T00:09:47.781Z,11.90
2019-01-31T00:15:08.283Z,12.20
2019-01-31T00:20:47.736Z,12.93
2019-01-31T00:26:23.188Z,12.90
2019-01-31T00:32:09.187Z,11.70
2019-01-31T00:37:52.963Z,12.70
2019-01-31T00:43:31.879Z,14.30
2019-01-31T00:49:18.776Z,13.97
2019-01-31T00:54:50.804Z,14.23
2019-01-31T01:00:39.095Z,16.37
2019-01-31T01:06:15.875Z,16.27
2019-01-31T01:12:09.244Z,17.97
2019-01-31T01:17:26.839Z,17.90
2019-01-31T01:23:03.203Z,18.43
2019-01-31T01:28:29.819Z,18.63
2019-01-31T01:34:09.603Z,20.30
2019-01-31T01:39:34.715Z,20.63
2019-01-31T01:45:02.943Z,21.03
2019-01-31T01:50:38.899Z,18.97
2019-01-31T01:56:11.303Z,18.90
2019-01-31T02:01:55.602Z,18.47
2019-01-31T02:29:38.615Z,15.53
2019-01-31T02:35:24.581Z,16.73
2019-01-31T02:41:22.589Z,18.03
2019-01-31T02:46:55.509Z,17.03
2019-01-31T02:52:45.255Z,17.37
2019-01-31T02:58:42.301Z,17.87
2019-01-31T03:04:15.050Z,17.13
2019-01-31T03:09:57.461Z,16.53
2019-01-31T03:15:15.810Z,17.80
2019-01-31T03:20:33.196Z,16.73
2019-01-31T03:25:59.760Z,16.33
2019-01-31T03:31:54.297Z,17.10
2019-01-31T03:37:35.687Z,16.43
2019-01-31T03:43:06.554Z,15.40
2019-01-31T03:48:26.352Z,15.67
2019-01-31T03:54:01.548Z,16.50
2019-01-31T03:59:19.043Z,15.43
2019-01-31T04:04:32.148Z,15.10
2019-01-31T04:09:36.383Z,14.17
2019-01-31T04:14:40.586Z,12.83
2019-01-31T04:19:44.806Z,11.83
2019-01-31T04:24:49.133Z,12.67
2019-01-31T04:29:53.309Z,12.63
2019-01-31T04:34:57.525Z,12.37
2019-01-31T04:40:01.702Z,12.30
2019-01-31T04:45:07.569Z,11.93
2019-01-31T04:50:15.044Z,12.23
2019-01-31T04:55:19.323Z,12.37
2019-01-31T05:00:23.500Z,12.37
2019-01-31T05:05:27.728Z,13.53
2019-01-31T05:10:42.433Z,14.30
2019-01-31T05:15:37.899Z,12.93
2019-01-31T05:20:42.099Z,12.47
2019-01-31T05:25:46.281Z,11.07
2019-01-31T05:30:50.510Z,10.97
2019-01-31T05:35:54.791Z,10.70
2019-01-31T05:40:58.975Z,10.43
2019-01-31T05:46:05.272Z,10.97
2019-01-31T05:51:09.508Z,11.10
2019-01-31T05:56:13.744Z,13.43
2019-01-31T06:01:18.512Z,13.70
2019-01-31T06:06:22.791Z,13.00
2019-01-31T06:11:26.984Z,14.60
2019-01-31T06:16:31.173Z,12.30
2019-01-31T06:21:35.460Z,13.00
2019-01-31T06:26:39.639Z,12.77
2019-01-31T06:31:43.833Z,13.40
2019-01-31T06:36:48.104Z,14.33
2019-01-31T06:41:52.307Z,14.30
2019-01-31T06:46:56.527Z,13.80
2019-01-31T06:52:00.755Z,12.20
2019-01-31T06:57:04.937Z,13.13
2019-01-31T07:02:09.215Z,12.93
2019-01-31T07:07:13.463Z,11.67
2019-01-31T07:12:17.652Z,11.67
2019-01-31T07:17:21.859Z,11.60
2019-01-31T07:22:26.093Z,12.27
2019-01-31T07:27:30.424Z,12.50
2019-01-31T07:32:34.704Z,14.77
2019-01-31T07:37:38.916Z,13.10
2019-01-31T07:42:43.166Z,13.43
2019-01-31T07:47:47.446Z,13.20
2019-01-31T07:52:51.630Z,12.43
2019-01-31T07:57:55.988Z,11.97
2019-01-31T08:03:00.198Z,12.00
2019-01-31T08:08:05.612Z,10.70
2019-01-31T08:13:09.992Z,9.07
2019-01-31T08:18:14.200Z,8.70
2019-01-31T08:23:18.489Z,8.40
2019-01-31T08:28:22.716Z,6.87
2019-01-31T08:33:28.534Z,7.80
2019-01-31T08:38:32.865Z,7.30
2019-01-31T08:43:37.086Z,7.67
2019-01-31T08:48:41.342Z,7.33
2019-01-31T08:53:45.719Z,7.00
2019-01-31T08:58:50.223Z,6.47
2019-01-31T09:03:54.430Z,6.10
2019-01-31T09:08:58.788Z,5.95
2019-01-31T09:14:02.982Z,6.47
2019-01-31T09:19:07.181Z,6.30
2019-01-31T09:24:42.499Z,5.90
2019-01-31T09:30:11.956Z,6.62
2019-01-31T09:42:06.649Z,7.37
2019-01-31T09:47:36.985Z,7.67
2019-01-31T09:53:34.399Z,7.53
2019-01-31T09:59:02.059Z,6.73
2019-01-31T10:04:24.576Z,6.10
2019-01-31T10:10:05.622Z,5.27
2019-01-31T10:15:44.657Z,4.80
2019-01-31T10:21:38.971Z,4.50
2019-01-31T10:27:29.752Z,3.95
2019-01-31T10:33:13.553Z,4.03
2019-01-31T10:38:55.544Z,3.33
2019-01-31T10:44:46.769Z,3.77
2019-01-31T10:50:33.574Z,4.00
2019-01-31T10:56:33.698Z,3.80
2019-01-31T11:02:11.713Z,3.50
2019-01-31T11:07:46.479Z,3.87
2019-01-31T11:13:09.188Z,3.60
2019-01-31T11:18:31.947Z,3.30
2019-01-31T11:23:46.898Z,3.30
2019-01-31T11:29:09.694Z,3.45
2019-01-31T11:34:32.700Z,3.87
2019-01-31T11:39:57.155Z,3.55
2019-01-31T11:45:18.994Z,3.80
2019-01-31T11:50:47.896Z,3.33
2019-01-31T11:56:18.210Z,3.00
2019-01-31T12:01:22.307Z,2.77
2019-01-31T12:06:25.998Z,2.70
2019-01-31T12:11:29.635Z,3.12
2019-01-31T12:16:33.318Z,2.22
2019-01-31T12:21:37.011Z,2.42
2019-01-31T12:26:40.908Z,2.80
2019-01-31T12:31:44.586Z,2.40
2019-01-31T12:36:48.299Z,2.75
2019-01-31T12:41:52.000Z,2.30
2019-01-31T12:46:55.607Z,2.27
2019-01-31T12:51:59.282Z,2.17
2019-01-31T12:57:02.890Z,2.10
2019-01-31T13:02:07.103Z,2.15
2019-01-31T13:07:11.391Z,2.10
2019-01-31T13:12:15.391Z,1.77
2019-01-31T13:17:19.064Z,2.02
2019-01-31T13:22:22.750Z,1.80
2019-01-31T13:27:26.500Z,1.67
2019-01-31T13:32:30.178Z,1.42
2019-01-31T13:37:33.787Z,1.37
2019-01-31T13:42:37.496Z,2.00
2019-01-31T13:47:41.394Z,1.70
2019-01-31T13:52:45.254Z,1.70
2019-01-31T13:57:49.049Z,1.80
2019-01-31T14:02:52.657Z,1.43
2019-01-31T14:07:56.317Z,1.43
2019-01-31T14:13:00.011Z,2.03
2019-01-31T14:18:03.719Z,1.50
2019-01-31T14:23:07.439Z,1.40
2019-01-31T14:28:11.088Z,1.50
2019-01-31T14:33:19.112Z,1.70
2019-01-31T14:38:22.832Z,1.80
2019-01-31T14:43:26.546Z,2.00
2019-01-31T14:48:30.168Z,1.77
2019-01-31T14:53:33.870Z,1.60
2019-01-31T14:58:37.515Z,1.73
2019-01-31T15:03:41.240Z,1.63
2019-01-31T15:08:44.847Z,1.80
2019-01-31T15:13:48.448Z,1.80
2019-01-31T15:18:52.106Z,1.80
2019-01-31T15:23:55.788Z,1.67
2019-01-31T15:28:59.475Z,2.00
2019-01-31T15:34:03.557Z,2.03
2019-01-31T15:39:08.208Z,2.30
2019-01-31T15:44:11.962Z,2.40
2019-01-31T15:49:15.705Z,2.10
2019-01-31T15:54:19.464Z,1.87
2019-01-31T15:59:23.191Z,13.40
2019-01-31T16:04:26.913Z,1.93
2019-01-31T16:09:30.706Z,2.30
2019-01-31T16:14:34.402Z,2.20
2019-01-31T16:19:38.125Z,2.20
2019-01-31T16:24:41.865Z,2.23
2019-01-31T16:29:45.528Z,3.17
2019-01-31T16:34:49.233Z,3.30
2019-01-31T16:39:52.901Z,3.87
2019-01-31T16:45:06.372Z,4.43
2019-01-31T16:50:01.933Z,4.37
2019-01-31T16:55:06.497Z,4.40
2019-01-31T17:00:12.431Z,3.97
2019-01-31T17:05:17.200Z,4.97
2019-01-31T17:10:20.857Z,4.33
2019-01-31T17:15:24.858Z,4.50
2019-01-31T17:20:33.089Z,4.20
2019-01-31T17:25:36.795Z,5.53
2019-01-31T17:30:40.482Z,5.63
2019-01-31T17:35:44.178Z,4.23
2019-01-31T17:40:47.866Z,4.87
2019-01-31T17:45:52.484Z,4.47
2019-01-31T17:50:58.017Z,3.63
2019-01-31T17:56:02.353Z,3.97
2019-01-31T18:01:07.602Z,4.37
2019-01-31T18:06:11.846Z,4.03
2019-01-31T18:11:16.244Z,3.83
2019-01-31T18:16:20.470Z,3.90
2019-01-31T18:21:24.885Z,3.50
2019-01-31T18:26:29.212Z,4.07
2019-01-31T18:31:33.508Z,3.90
2019-01-31T18:36:37.798Z,3.30
2019-01-31T18:41:42.132Z,3.87
2019-01-31T18:46:46.465Z,11.20
2019-01-31T18:51:51.016Z,4.27
2019-01-31T18:56:55.380Z,3.20
2019-01-31T19:01:59.616Z,3.73
2019-01-31T19:07:03.875Z,8.60
2019-01-31T19:12:08.389Z,3.73
2019-01-31T19:17:12.691Z,3.57
2019-01-31T19:22:16.907Z,3.93
2019-01-31T19:27:21.224Z,3.33
2019-01-31T19:32:25.437Z,3.70
2019-01-31T19:37:29.782Z,3.73
2019-01-31T19:42:34.153Z,2.97
2019-01-31T19:47:38.464Z,4.07
2019-01-31T19:52:42.717Z,2.67
2019-01-31T19:57:47.169Z,3.80
2019-01-31T20:02:51.536Z,2.80
2019-01-31T20:07:55.860Z,3.60
2019-01-31T20:13:00.493Z,3.10
2019-01-31T20:18:05.455Z,3.20
2019-01-31T20:23:11.025Z,2.87
2019-01-31T20:28:15.484Z,3.03
2019-01-31T20:33:20.075Z,2.93
2019-01-31T20:38:24.509Z,3.37
2019-01-31T20:43:28.964Z,2.60
2019-01-31T20:48:33.322Z,4.13
2019-01-31T20:53:38.041Z,3.20
2019-01-31T20:58:44.711Z,3.03
2019-01-31T21:03:49.636Z,3.20
2019-01-31T21:08:53.986Z,3.27
2019-01-31T21:13:58.195Z,2.90
2019-01-31T21:19:02.478Z,3.00
2019-01-31T21:24:06.750Z,3.27
2019-01-31T21:29:11.045Z,2.70
2019-01-31T21:34:15.282Z,3.47
2019-01-31T21:39:19.531Z,3.23
2019-01-31T21:44:23.734Z,2.97
2019-01-31T21:49:28.124Z,4.27
2019-01-31T21:54:32.454Z,2.97
2019-01-31T21:59:36.755Z,2.80
2019-01-31T22:04:42.553Z,3.10
2019-01-31T22:09:46.840Z,3.17
2019-01-31T22:14:51.032Z,3.80
2019-01-31T22:19:55.258Z,3.10
2019-01-31T22:24:59.604Z,2.97
2019-01-31T22:30:05.169Z,3.60
2019-01-31T22:35:10.062Z,3.10
2019-01-31T22:40:14.586Z,3.83
2019-01-31T22:45:20.763Z,3.37
2019-01-31T22:50:25.510Z,3.10
2019-01-31T22:55:29.711Z,2.83
2019-01-31T23:01:23.045Z,4.57
2019-01-31T23:06:28.820Z,3.90
2019-01-31T23:11:33.094Z,3.40
2019-01-31T23:16:37.381Z,3.20
2019-01-31T23:21:41.606Z,3.20
2019-01-31T23:26:45.796Z,3.67
2019-01-31T23:31:49.995Z,3.73
2019-01-31T23:36:55.815Z,4.67
2019-01-31T23:42:00.081Z,4.77
2019-01-31T23:47:04.608Z,5.17
2019-01-31T23:52:08.817Z,4.70
2019-01-31T23:57:13.070Z,4.90
